sensor_id;sensor_type;location;lat;lon;timestamp;P1;durP1;ratioP1;P2;durP2;ratioP2
33138;SDS011;19501;50.948;5.316;2023-09-19T00:01:41;21.25;;;4.18;;
33138;SDS011;19501;50.948;5.316;2023-09-19T00:04:09;20.98;;;4.25;;
33138;SDS011;19501;50.948;5.316;2023-09-19T00:06:38;16.27;;;3.78;;
33138;SDS011;19501;50.948;5.316;2023-09-19T00:09:09;16.33;;;4.15;;
33138;SDS011;19501;50.948;5.316;2023-09-19T00:11:36;16.98;;;4.40;;
33138;SDS011;19501;50.948;5.316;2023-09-19T00:14:03;19.67;;;4.40;;
33138;SDS011;19501;50.948;5.316;2023-09-19T00:16:29;14.50;;;3.60;;
33138;SDS011;19501;50.948;5.316;2023-09-19T00:18:55;25.35;;;4.32;;
33138;SDS011;19501;50.948;5.316;2023-09-19T00:21:21;19.67;;;4.20;;
33138;SDS011;19501;50.948;5.316;2023-09-19T00:23:47;19.55;;;3.75;;
33138;SDS011;19501;50.948;5.316;2023-09-19T00:26:12;24.45;;;4.65;;
33138;SDS011;19501;50.948;5.316;2023-09-19T00:28:39;19.02;;;4.18;;
33138;SDS011;19501;50.948;5.316;2023-09-19T00:31:04;19.73;;;3.58;;
33138;SDS011;19501;50.948;5.316;2023-09-19T00:33:33;17.50;;;3.00;;
33138;SDS011;19501;50.948;5.316;2023-09-19T00:35:59;20.40;;;3.65;;
33138;SDS011;19501;50.948;5.316;2023-09-19T00:38:27;14.82;;;3.78;;
33138;SDS011;19501;50.948;5.316;2023-09-19T00:40:53;16.25;;;3.78;;
33138;SDS011;19501;50.948;5.316;2023-09-19T00:43:20;17.23;;;4.25;;
33138;SDS011;19501;50.948;5.316;2023-09-19T00:45:47;19.15;;;4.30;;
33138;SDS011;19501;50.948;5.316;2023-09-19T00:48:15;16.85;;;3.97;;
33138;SDS011;19501;50.948;5.316;2023-09-19T00:50:45;18.20;;;3.90;;
33138;SDS011;19501;50.948;5.316;2023-09-19T00:53:15;21.90;;;4.63;;
33138;SDS011;19501;50.948;5.316;2023-09-19T00:55:45;20.50;;;4.47;;
33138;SDS011;19501;50.948;5.316;2023-09-19T00:58:13;24.02;;;3.50;;
33138;SDS011;19501;50.948;5.316;2023-09-19T01:00:38;18.58;;;3.22;;
33138;SDS011;19501;50.948;5.316;2023-09-19T01:03:05;22.30;;;3.40;;
33138;SDS011;19501;50.948;5.316;2023-09-19T01:05:31;16.50;;;3.72;;
33138;SDS011;19501;50.948;5.316;2023-09-19T01:07:59;20.13;;;3.60;;
33138;SDS011;19501;50.948;5.316;2023-09-19T01:10:27;15.50;;;3.15;;
33138;SDS011;19501;50.948;5.316;2023-09-19T01:13:06;18.35;;;3.70;;
33138;SDS011;19501;50.948;5.316;2023-09-19T01:21:26;18.75;;;3.95;;
33138;SDS011;19501;50.948;5.316;2023-09-19T01:29:49;14.52;;;3.90;;
33138;SDS011;19501;50.948;5.316;2023-09-19T01:32:16;16.23;;;3.33;;
33138;SDS011;19501;50.948;5.316;2023-09-19T01:34:54;18.55;;;4.53;;
33138;SDS011;19501;50.948;5.316;2023-09-19T01:37:29;19.90;;;4.03;;
33138;SDS011;19501;50.948;5.316;2023-09-19T01:40:03;20.27;;;3.85;;
33138;SDS011;19501;50.948;5.316;2023-09-19T01:42:45;15.57;;;3.28;;
33138;SDS011;19501;50.948;5.316;2023-09-19T01:47:52;17.40;;;3.85;;
33138;SDS011;19501;50.948;5.316;2023-09-19T01:53:05;15.55;;;3.40;;
33138;SDS011;19501;50.948;5.316;2023-09-19T01:55:41;20.52;;;4.22;;
33138;SDS011;19501;50.948;5.316;2023-09-19T01:58:16;15.55;;;3.65;;
33138;SDS011;19501;50.948;5.316;2023-09-19T02:01:08;18.70;;;3.67;;
33138;SDS011;19501;50.948;5.316;2023-09-19T02:03:40;17.02;;;3.65;;
33138;SDS011;19501;50.948;5.316;2023-09-19T02:06:07;22.77;;;4.13;;
33138;SDS011;19501;50.948;5.316;2023-09-19T02:08:36;20.02;;;3.15;;
33138;SDS011;19501;50.948;5.316;2023-09-19T02:11:02;25.02;;;5.13;;
33138;SDS011;19501;50.948;5.316;2023-09-19T02:13:28;17.38;;;4.15;;
33138;SDS011;19501;50.948;5.316;2023-09-19T02:15:56;23.95;;;4.07;;
33138;SDS011;19501;50.948;5.316;2023-09-19T02:18:22;19.85;;;3.95;;
33138;SDS011;19501;50.948;5.316;2023-09-19T02:20:48;17.77;;;3.92;;
33138;SDS011;19501;50.948;5.316;2023-09-19T02:23:14;16.25;;;3.22;;
33138;SDS011;19501;50.948;5.316;2023-09-19T02:25:43;19.88;;;4.57;;
33138;SDS011;19501;50.948;5.316;2023-09-19T02:28:19;20.65;;;3.50;;
33138;SDS011;19501;50.948;5.316;2023-09-19T02:30:48;16.33;;;3.50;;
33138;SDS011;19501;50.948;5.316;2023-09-19T02:33:15;16.23;;;3.97;;
33138;SDS011;19501;50.948;5.316;2023-09-19T02:35:42;24.48;;;3.78;;
33138;SDS011;19501;50.948;5.316;2023-09-19T02:38:08;19.83;;;4.10;;
33138;SDS011;19501;50.948;5.316;2023-09-19T02:40:36;26.40;;;4.68;;
33138;SDS011;19501;50.948;5.316;2023-09-19T02:43:02;19.52;;;3.97;;
33138;SDS011;19501;50.948;5.316;2023-09-19T02:45:28;15.40;;;3.70;;
33138;SDS011;19501;50.948;5.316;2023-09-19T02:47:54;20.95;;;3.88;;
33138;SDS011;19501;50.948;5.316;2023-09-19T02:50:20;19.90;;;4.38;;
33138;SDS011;19501;50.948;5.316;2023-09-19T02:52:46;12.25;;;3.35;;
33138;SDS011;19501;50.948;5.316;2023-09-19T02:55:13;19.33;;;3.88;;
33138;SDS011;19501;50.948;5.316;2023-09-19T02:57:53;18.55;;;3.78;;
33138;SDS011;19501;50.948;5.316;2023-09-19T03:00:22;18.33;;;3.60;;
33138;SDS011;19501;50.948;5.316;2023-09-19T03:02:48;18.55;;;4.30;;
33138;SDS011;19501;50.948;5.316;2023-09-19T03:05:14;18.98;;;3.50;;
33138;SDS011;19501;50.948;5.316;2023-09-19T03:07:40;17.75;;;4.30;;
33138;SDS011;19501;50.948;5.316;2023-09-19T03:10:10;20.05;;;4.30;;
33138;SDS011;19501;50.948;5.316;2023-09-19T03:12:36;22.92;;;4.32;;
33138;SDS011;19501;50.948;5.316;2023-09-19T03:15:03;25.02;;;4.40;;
33138;SDS011;19501;50.948;5.316;2023-09-19T03:17:33;16.48;;;3.38;;
33138;SDS011;19501;50.948;5.316;2023-09-19T03:19:59;20.25;;;4.30;;
33138;SDS011;19501;50.948;5.316;2023-09-19T03:22:26;22.55;;;4.50;;
33138;SDS011;19501;50.948;5.316;2023-09-19T03:24:52;25.45;;;4.55;;
33138;SDS011;19501;50.948;5.316;2023-09-19T03:27:18;17.15;;;4.03;;
33138;SDS011;19501;50.948;5.316;2023-09-19T03:29:45;22.25;;;3.85;;
33138;SDS011;19501;50.948;5.316;2023-09-19T03:32:11;22.17;;;4.18;;
33138;SDS011;19501;50.948;5.316;2023-09-19T03:34:37;17.75;;;3.53;;
33138;SDS011;19501;50.948;5.316;2023-09-19T03:37:08;21.55;;;4.28;;
33138;SDS011;19501;50.948;5.316;2023-09-19T03:39:34;22.95;;;5.07;;
33138;SDS011;19501;50.948;5.316;2023-09-19T03:42:00;24.00;;;4.50;;
33138;SDS011;19501;50.948;5.316;2023-09-19T03:44:28;13.02;;;3.05;;
33138;SDS011;19501;50.948;5.316;2023-09-19T03:46:53;16.80;;;3.55;;
33138;SDS011;19501;50.948;5.316;2023-09-19T03:49:20;14.93;;;3.55;;
33138;SDS011;19501;50.948;5.316;2023-09-19T03:51:46;21.48;;;3.70;;
33138;SDS011;19501;50.948;5.316;2023-09-19T03:54:14;14.52;;;4.07;;
33138;SDS011;19501;50.948;5.316;2023-09-19T03:56:39;17.88;;;3.72;;
33138;SDS011;19501;50.948;5.316;2023-09-19T03:59:05;23.88;;;4.50;;
33138;SDS011;19501;50.948;5.316;2023-09-19T04:01:31;19.92;;;3.95;;
33138;SDS011;19501;50.948;5.316;2023-09-19T04:03:58;15.25;;;3.30;;
33138;SDS011;19501;50.948;5.316;2023-09-19T04:06:32;15.57;;;3.20;;
33138;SDS011;19501;50.948;5.316;2023-09-19T04:09:00;17.80;;;4.32;;
33138;SDS011;19501;50.948;5.316;2023-09-19T04:11:26;19.75;;;3.53;;
33138;SDS011;19501;50.948;5.316;2023-09-19T04:13:51;17.80;;;3.92;;
33138;SDS011;19501;50.948;5.316;2023-09-19T04:16:18;12.30;;;3.22;;
33138;SDS011;19501;50.948;5.316;2023-09-19T04:18:44;19.48;;;3.92;;
33138;SDS011;19501;50.948;5.316;2023-09-19T04:21:10;15.80;;;3.10;;
33138;SDS011;19501;50.948;5.316;2023-09-19T04:23:36;17.55;;;4.13;;
33138;SDS011;19501;50.948;5.316;2023-09-19T04:26:01;21.08;;;5.25;;
33138;SDS011;19501;50.948;5.316;2023-09-19T04:28:29;23.98;;;4.15;;
33138;SDS011;19501;50.948;5.316;2023-09-19T04:30:56;16.10;;;3.40;;
33138;SDS011;19501;50.948;5.316;2023-09-19T04:33:22;16.40;;;3.42;;
33138;SDS011;19501;50.948;5.316;2023-09-19T04:35:51;16.40;;;3.78;;
33138;SDS011;19501;50.948;5.316;2023-09-19T04:38:17;13.63;;;3.30;;
33138;SDS011;19501;50.948;5.316;2023-09-19T04:40:44;22.33;;;4.35;;
33138;SDS011;19501;50.948;5.316;2023-09-19T04:43:10;16.95;;;3.55;;
33138;SDS011;19501;50.948;5.316;2023-09-19T04:45:36;14.80;;;3.28;;
33138;SDS011;19501;50.948;5.316;2023-09-19T04:48:06;18.23;;;3.40;;
33138;SDS011;19501;50.948;5.316;2023-09-19T04:50:34;16.23;;;3.50;;
33138;SDS011;19501;50.948;5.316;2023-09-19T04:53:00;19.90;;;3.90;;
33138;SDS011;19501;50.948;5.316;2023-09-19T04:55:32;23.90;;;3.83;;
33138;SDS011;19501;50.948;5.316;2023-09-19T04:57:58;17.67;;;4.05;;
33138;SDS011;19501;50.948;5.316;2023-09-19T05:00:23;19.17;;;4.07;;
33138;SDS011;19501;50.948;5.316;2023-09-19T05:02:50;25.85;;;3.40;;
33138;SDS011;19501;50.948;5.316;2023-09-19T05:05:16;16.90;;;4.13;;
33138;SDS011;19501;50.948;5.316;2023-09-19T05:07:42;23.17;;;3.40;;
33138;SDS011;19501;50.948;5.316;2023-09-19T05:10:09;24.38;;;4.25;;
33138;SDS011;19501;50.948;5.316;2023-09-19T05:12:38;22.10;;;3.88;;
33138;SDS011;19501;50.948;5.316;2023-09-19T05:15:05;20.38;;;3.88;;
33138;SDS011;19501;50.948;5.316;2023-09-19T05:17:32;22.35;;;4.13;;
33138;SDS011;19501;50.948;5.316;2023-09-19T05:19:59;18.33;;;3.97;;
33138;SDS011;19501;50.948;5.316;2023-09-19T05:22:49;16.02;;;3.33;;
33138;SDS011;19501;50.948;5.316;2023-09-19T05:25:15;22.13;;;4.57;;
33138;SDS011;19501;50.948;5.316;2023-09-19T05:27:43;18.27;;;3.67;;
33138;SDS011;19501;50.948;5.316;2023-09-19T05:30:08;17.17;;;3.38;;
33138;SDS011;19501;50.948;5.316;2023-09-19T05:32:35;18.10;;;3.90;;
33138;SDS011;19501;50.948;5.316;2023-09-19T05:35:00;17.63;;;3.30;;
33138;SDS011;19501;50.948;5.316;2023-09-19T05:37:26;16.13;;;3.25;;
33138;SDS011;19501;50.948;5.316;2023-09-19T05:39:52;17.02;;;3.30;;
33138;SDS011;19501;50.948;5.316;2023-09-19T05:42:18;16.63;;;3.90;;
33138;SDS011;19501;50.948;5.316;2023-09-19T05:44:44;16.90;;;3.45;;
33138;SDS011;19501;50.948;5.316;2023-09-19T05:47:10;16.52;;;3.50;;
33138;SDS011;19501;50.948;5.316;2023-09-19T05:49:35;14.90;;;3.65;;
33138;SDS011;19501;50.948;5.316;2023-09-19T05:52:06;17.83;;;3.95;;
33138;SDS011;19501;50.948;5.316;2023-09-19T05:54:32;18.52;;;3.92;;
33138;SDS011;19501;50.948;5.316;2023-09-19T05:57:02;19.45;;;3.58;;
33138;SDS011;19501;50.948;5.316;2023-09-19T05:59:28;17.30;;;3.03;;
33138;SDS011;19501;50.948;5.316;2023-09-19T06:01:54;14.65;;;3.65;;
33138;SDS011;19501;50.948;5.316;2023-09-19T06:04:20;13.85;;;3.10;;
33138;SDS011;19501;50.948;5.316;2023-09-19T06:06:46;26.73;;;4.40;;
33138;SDS011;19501;50.948;5.316;2023-09-19T06:09:13;15.25;;;3.42;;
33138;SDS011;19501;50.948;5.316;2023-09-19T06:11:41;9.20;;;2.40;;
33138;SDS011;19501;50.948;5.316;2023-09-19T06:14:07;17.48;;;3.75;;
33138;SDS011;19501;50.948;5.316;2023-09-19T06:16:35;19.73;;;3.88;;
33138;SDS011;19501;50.948;5.316;2023-09-19T06:19:03;16.88;;;3.60;;
33138;SDS011;19501;50.948;5.316;2023-09-19T06:21:31;14.50;;;3.40;;
33138;SDS011;19501;50.948;5.316;2023-09-19T06:23:57;16.73;;;3.70;;
33138;SDS011;19501;50.948;5.316;2023-09-19T06:26:23;23.52;;;4.10;;
33138;SDS011;19501;50.948;5.316;2023-09-19T06:28:51;18.63;;;4.13;;
33138;SDS011;19501;50.948;5.316;2023-09-19T06:31:17;15.43;;;4.10;;
33138;SDS011;19501;50.948;5.316;2023-09-19T06:33:43;12.60;;;3.40;;
33138;SDS011;19501;50.948;5.316;2023-09-19T06:36:09;19.13;;;3.75;;
33138;SDS011;19501;50.948;5.316;2023-09-19T06:38:35;20.80;;;3.90;;
33138;SDS011;19501;50.948;5.316;2023-09-19T06:41:01;16.05;;;3.45;;
33138;SDS011;19501;50.948;5.316;2023-09-19T06:43:32;20.25;;;5.28;;
33138;SDS011;19501;50.948;5.316;2023-09-19T06:45:58;19.48;;;4.03;;
33138;SDS011;19501;50.948;5.316;2023-09-19T06:48:25;23.95;;;4.55;;
33138;SDS011;19501;50.948;5.316;2023-09-19T06:50:53;17.08;;;3.55;;
33138;SDS011;19501;50.948;5.316;2023-09-19T06:53:20;20.38;;;3.95;;
33138;SDS011;19501;50.948;5.316;2023-09-19T06:55:45;17.38;;;3.92;;
33138;SDS011;19501;50.948;5.316;2023-09-19T06:58:12;20.25;;;3.42;;
33138;SDS011;19501;50.948;5.316;2023-09-19T07:00:38;17.80;;;3.80;;
33138;SDS011;19501;50.948;5.316;2023-09-19T07:03:04;18.02;;;2.88;;
33138;SDS011;19501;50.948;5.316;2023-09-19T07:05:33;13.73;;;3.83;;
33138;SDS011;19501;50.948;5.316;2023-09-19T07:08:04;15.05;;;3.60;;
33138;SDS011;19501;50.948;5.316;2023-09-19T07:10:34;14.55;;;3.15;;
33138;SDS011;19501;50.948;5.316;2023-09-19T07:13:01;15.85;;;2.88;;
33138;SDS011;19501;50.948;5.316;2023-09-19T07:15:38;16.95;;;3.53;;
33138;SDS011;19501;50.948;5.316;2023-09-19T07:18:06;20.10;;;3.95;;
33138;SDS011;19501;50.948;5.316;2023-09-19T07:20:36;16.90;;;2.83;;
33138;SDS011;19501;50.948;5.316;2023-09-19T07:23:02;18.98;;;4.05;;
33138;SDS011;19501;50.948;5.316;2023-09-19T07:25:28;21.10;;;3.70;;
33138;SDS011;19501;50.948;5.316;2023-09-19T07:27:56;19.55;;;3.72;;
33138;SDS011;19501;50.948;5.316;2023-09-19T07:30:26;17.05;;;3.83;;
33138;SDS011;19501;50.948;5.316;2023-09-19T07:32:52;19.15;;;3.65;;
33138;SDS011;19501;50.948;5.316;2023-09-19T07:35:18;17.73;;;3.72;;
33138;SDS011;19501;50.948;5.316;2023-09-19T07:37:48;16.58;;;3.67;;
33138;SDS011;19501;50.948;5.316;2023-09-19T07:40:14;17.17;;;3.70;;
33138;SDS011;19501;50.948;5.316;2023-09-19T07:42:40;16.45;;;3.75;;
33138;SDS011;19501;50.948;5.316;2023-09-19T07:45:07;18.27;;;4.00;;
33138;SDS011;19501;50.948;5.316;2023-09-19T07:47:33;19.13;;;3.72;;
33138;SDS011;19501;50.948;5.316;2023-09-19T07:49:59;14.60;;;3.10;;
33138;SDS011;19501;50.948;5.316;2023-09-19T07:52:28;15.75;;;3.10;;
33138;SDS011;19501;50.948;5.316;2023-09-19T07:54:54;15.65;;;3.08;;
33138;SDS011;19501;50.948;5.316;2023-09-19T07:57:26;22.25;;;4.20;;
33138;SDS011;19501;50.948;5.316;2023-09-19T07:59:53;20.00;;;3.78;;
33138;SDS011;19501;50.948;5.316;2023-09-19T08:02:19;19.45;;;3.33;;
33138;SDS011;19501;50.948;5.316;2023-09-19T08:04:45;22.45;;;3.15;;
33138;SDS011;19501;50.948;5.316;2023-09-19T08:07:11;15.38;;;3.53;;
33138;SDS011;19501;50.948;5.316;2023-09-19T08:09:38;17.38;;;3.35;;
33138;SDS011;19501;50.948;5.316;2023-09-19T08:12:04;17.13;;;3.55;;
33138;SDS011;19501;50.948;5.316;2023-09-19T08:14:35;18.52;;;4.78;;
33138;SDS011;19501;50.948;5.316;2023-09-19T08:17:01;17.65;;;3.63;;
33138;SDS011;19501;50.948;5.316;2023-09-19T08:19:30;21.50;;;3.75;;
33138;SDS011;19501;50.948;5.316;2023-09-19T08:21:57;14.70;;;3.05;;
33138;SDS011;19501;50.948;5.316;2023-09-19T08:24:24;17.27;;;3.47;;
33138;SDS011;19501;50.948;5.316;2023-09-19T08:26:54;20.58;;;3.15;;
33138;SDS011;19501;50.948;5.316;2023-09-19T08:29:21;18.02;;;4.32;;
33138;SDS011;19501;50.948;5.316;2023-09-19T08:31:52;15.55;;;3.47;;
33138;SDS011;19501;50.948;5.316;2023-09-19T08:34:19;17.10;;;3.20;;
33138;SDS011;19501;50.948;5.316;2023-09-19T08:36:46;17.08;;;3.60;;
33138;SDS011;19501;50.948;5.316;2023-09-19T08:39:13;14.30;;;3.10;;
33138;SDS011;19501;50.948;5.316;2023-09-19T08:41:39;17.90;;;3.45;;
33138;SDS011;19501;50.948;5.316;2023-09-19T08:44:05;18.33;;;3.50;;
33138;SDS011;19501;50.948;5.316;2023-09-19T08:46:30;16.70;;;4.25;;
33138;SDS011;19501;50.948;5.316;2023-09-19T08:49:04;22.10;;;5.78;;
33138;SDS011;19501;50.948;5.316;2023-09-19T08:51:42;18.88;;;3.60;;
33138;SDS011;19501;50.948;5.316;2023-09-19T08:54:32;19.75;;;3.25;;
33138;SDS011;19501;50.948;5.316;2023-09-19T08:57:00;16.73;;;3.60;;
33138;SDS011;19501;50.948;5.316;2023-09-19T08:59:33;17.13;;;3.13;;
33138;SDS011;19501;50.948;5.316;2023-09-19T09:02:01;18.60;;;3.85;;
33138;SDS011;19501;50.948;5.316;2023-09-19T09:04:29;20.48;;;3.00;;
33138;SDS011;19501;50.948;5.316;2023-09-19T09:06:55;15.15;;;3.60;;
33138;SDS011;19501;50.948;5.316;2023-09-19T09:09:23;22.08;;;4.25;;
33138;SDS011;19501;50.948;5.316;2023-09-19T09:11:49;14.60;;;3.20;;
33138;SDS011;19501;50.948;5.316;2023-09-19T09:14:18;20.98;;;3.85;;
33138;SDS011;19501;50.948;5.316;2023-09-19T09:16:46;16.88;;;3.03;;
33138;SDS011;19501;50.948;5.316;2023-09-19T09:19:13;19.50;;;3.88;;
33138;SDS011;19501;50.948;5.316;2023-09-19T09:21:40;19.77;;;3.83;;
33138;SDS011;19501;50.948;5.316;2023-09-19T09:26:53;16.52;;;3.20;;
33138;SDS011;19501;50.948;5.316;2023-09-19T09:29:31;10.75;;;2.67;;
33138;SDS011;19501;50.948;5.316;2023-09-19T09:32:37;16.67;;;3.75;;
33138;SDS011;19501;50.948;5.316;2023-09-19T09:35:07;22.35;;;3.50;;
33138;SDS011;19501;50.948;5.316;2023-09-19T09:37:36;11.77;;;3.50;;
33138;SDS011;19501;50.948;5.316;2023-09-19T09:40:04;25.83;;;4.40;;
33138;SDS011;19501;50.948;5.316;2023-09-19T09:42:39;21.15;;;4.10;;
33138;SDS011;19501;50.948;5.316;2023-09-19T09:47:45;19.52;;;3.83;;
33138;SDS011;19501;50.948;5.316;2023-09-19T09:50:34;20.02;;;3.35;;
33138;SDS011;19501;50.948;5.316;2023-09-19T09:53:25;15.02;;;3.55;;
33138;SDS011;19501;50.948;5.316;2023-09-19T09:58:24;27.08;;;4.35;;
33138;SDS011;19501;50.948;5.316;2023-09-19T10:00:57;17.63;;;3.40;;
33138;SDS011;19501;50.948;5.316;2023-09-19T10:03:38;21.02;;;3.78;;
33138;SDS011;19501;50.948;5.316;2023-09-19T10:06:08;18.42;;;3.50;;
33138;SDS011;19501;50.948;5.316;2023-09-19T10:14:09;14.63;;;3.38;;
33138;SDS011;19501;50.948;5.316;2023-09-19T10:16:39;7.75;;;2.10;;
33138;SDS011;19501;50.948;5.316;2023-09-19T10:19:10;17.00;;;3.55;;
33138;SDS011;19501;50.948;5.316;2023-09-19T10:21:38;21.50;;;4.32;;
33138;SDS011;19501;50.948;5.316;2023-09-19T10:24:04;16.20;;;3.63;;
33138;SDS011;19501;50.948;5.316;2023-09-19T10:26:33;15.27;;;2.72;;
33138;SDS011;19501;50.948;5.316;2023-09-19T10:29:01;22.42;;;3.70;;
33138;SDS011;19501;50.948;5.316;2023-09-19T10:31:28;13.65;;;3.25;;
33138;SDS011;19501;50.948;5.316;2023-09-19T10:33:59;14.88;;;3.67;;
33138;SDS011;19501;50.948;5.316;2023-09-19T10:36:29;17.67;;;3.40;;
33138;SDS011;19501;50.948;5.316;2023-09-19T10:39:01;13.55;;;3.00;;
33138;SDS011;19501;50.948;5.316;2023-09-19T10:41:31;18.33;;;3.58;;
33138;SDS011;19501;50.948;5.316;2023-09-19T10:44:01;15.23;;;3.58;;
33138;SDS011;19501;50.948;5.316;2023-09-19T10:46:30;12.85;;;3.58;;
33138;SDS011;19501;50.948;5.316;2023-09-19T10:49:00;15.85;;;3.85;;
33138;SDS011;19501;50.948;5.316;2023-09-19T10:51:31;16.77;;;3.83;;
33138;SDS011;19501;50.948;5.316;2023-09-19T10:54:06;8.52;;;2.20;;
33138;SDS011;19501;50.948;5.316;2023-09-19T10:56:50;15.90;;;2.97;;
33138;SDS011;19501;50.948;5.316;2023-09-19T10:59:17;14.30;;;2.63;;
33138;SDS011;19501;50.948;5.316;2023-09-19T11:01:47;12.63;;;3.30;;
33138;SDS011;19501;50.948;5.316;2023-09-19T11:04:20;12.88;;;2.65;;
33138;SDS011;19501;50.948;5.316;2023-09-19T11:07:03;14.45;;;2.75;;
33138;SDS011;19501;50.948;5.316;2023-09-19T11:15:02;8.23;;;2.10;;
33138;SDS011;19501;50.948;5.316;2023-09-19T11:17:39;14.35;;;2.88;;
33138;SDS011;19501;50.948;5.316;2023-09-19T11:25:59;11.80;;;2.58;;
33138;SDS011;19501;50.948;5.316;2023-09-19T11:30:39;12.93;;;2.67;;
33138;SDS011;19501;50.948;5.316;2023-09-19T11:36:08;17.15;;;3.03;;
33138;SDS011;19501;50.948;5.316;2023-09-19T11:43:48;7.68;;;2.50;;
33138;SDS011;19501;50.948;5.316;2023-09-19T11:46:16;13.25;;;2.50;;
33138;SDS011;19501;50.948;5.316;2023-09-19T11:48:47;12.68;;;3.20;;
33138;SDS011;19501;50.948;5.316;2023-09-19T11:51:20;11.93;;;2.67;;
33138;SDS011;19501;50.948;5.316;2023-09-19T11:53:50;9.05;;;1.80;;
33138;SDS011;19501;50.948;5.316;2023-09-19T11:56:18;15.77;;;3.17;;
33138;SDS011;19501;50.948;5.316;2023-09-19T11:58:46;9.80;;;2.30;;
33138;SDS011;19501;50.948;5.316;2023-09-19T12:01:22;10.88;;;2.45;;
33138;SDS011;19501;50.948;5.316;2023-09-19T12:03:59;10.00;;;2.65;;
33138;SDS011;19501;50.948;5.316;2023-09-19T12:06:27;12.25;;;2.15;;
33138;SDS011;19501;50.948;5.316;2023-09-19T12:09:04;10.15;;;2.10;;
33138;SDS011;19501;50.948;5.316;2023-09-19T12:11:40;11.85;;;2.30;;
33138;SDS011;19501;50.948;5.316;2023-09-19T12:14:08;10.90;;;2.88;;
33138;SDS011;19501;50.948;5.316;2023-09-19T12:16:34;17.52;;;2.72;;
33138;SDS011;19501;50.948;5.316;2023-09-19T12:19:20;6.07;;;1.88;;
33138;SDS011;19501;50.948;5.316;2023-09-19T12:24:23;8.50;;;1.80;;
33138;SDS011;19501;50.948;5.316;2023-09-19T12:26:51;5.13;;;1.48;;
33138;SDS011;19501;50.948;5.316;2023-09-19T12:29:18;10.35;;;1.80;;
33138;SDS011;19501;50.948;5.316;2023-09-19T12:34:20;7.60;;;2.08;;
33138;SDS011;19501;50.948;5.316;2023-09-19T12:36:47;9.13;;;2.25;;
33138;SDS011;19501;50.948;5.316;2023-09-19T12:39:23;9.95;;;2.35;;
33138;SDS011;19501;50.948;5.316;2023-09-19T12:41:51;6.30;;;2.42;;
33138;SDS011;19501;50.948;5.316;2023-09-19T12:44:18;10.60;;;2.08;;
33138;SDS011;19501;50.948;5.316;2023-09-19T12:46:44;9.57;;;2.40;;
33138;SDS011;19501;50.948;5.316;2023-09-19T12:49:16;9.10;;;2.05;;
33138;SDS011;19501;50.948;5.316;2023-09-19T12:51:43;10.43;;;2.10;;
33138;SDS011;19501;50.948;5.316;2023-09-19T12:54:10;8.05;;;2.13;;
33138;SDS011;19501;50.948;5.316;2023-09-19T12:56:39;9.02;;;1.90;;
33138;SDS011;19501;50.948;5.316;2023-09-19T12:59:09;4.90;;;1.70;;
33138;SDS011;19501;50.948;5.316;2023-09-19T13:01:41;9.30;;;2.25;;
33138;SDS011;19501;50.948;5.316;2023-09-19T13:04:19;5.90;;;1.65;;
33138;SDS011;19501;50.948;5.316;2023-09-19T13:06:53;8.52;;;2.10;;
33138;SDS011;19501;50.948;5.316;2023-09-19T13:09:20;2.08;;;1.23;;
33138;SDS011;19501;50.948;5.316;2023-09-19T13:11:47;6.40;;;1.90;;
33138;SDS011;19501;50.948;5.316;2023-09-19T13:16:55;9.43;;;2.00;;
33138;SDS011;19501;50.948;5.316;2023-09-19T13:25:03;6.38;;;1.38;;
33138;SDS011;19501;50.948;5.316;2023-09-19T13:27:37;7.10;;;2.25;;
33138;SDS011;19501;50.948;5.316;2023-09-19T13:30:02;4.97;;;1.73;;
33138;SDS011;19501;50.948;5.316;2023-09-19T13:32:31;11.68;;;2.53;;
33138;SDS011;19501;50.948;5.316;2023-09-19T13:34:57;9.13;;;2.17;;
33138;SDS011;19501;50.948;5.316;2023-09-19T13:37:23;7.03;;;1.90;;
33138;SDS011;19501;50.948;5.316;2023-09-19T13:39:51;7.55;;;1.75;;
33138;SDS011;19501;50.948;5.316;2023-09-19T13:42:17;5.75;;;1.40;;
33138;SDS011;19501;50.948;5.316;2023-09-19T13:44:43;6.97;;;1.88;;
33138;SDS011;19501;50.948;5.316;2023-09-19T13:47:09;7.07;;;1.70;;
33138;SDS011;19501;50.948;5.316;2023-09-19T13:49:35;8.60;;;2.28;;
33138;SDS011;19501;50.948;5.316;2023-09-19T13:52:02;9.10;;;1.85;;
33138;SDS011;19501;50.948;5.316;2023-09-19T13:54:32;9.85;;;1.98;;
33138;SDS011;19501;50.948;5.316;2023-09-19T13:56:58;11.38;;;1.92;;
33138;SDS011;19501;50.948;5.316;2023-09-19T13:59:23;7.00;;;1.80;;
33138;SDS011;19501;50.948;5.316;2023-09-19T14:01:49;10.57;;;1.95;;
33138;SDS011;19501;50.948;5.316;2023-09-19T14:04:15;10.05;;;1.73;;
33138;SDS011;19501;50.948;5.316;2023-09-19T14:06:42;8.10;;;2.05;;
33138;SDS011;19501;50.948;5.316;2023-09-19T14:09:08;8.57;;;2.25;;
33138;SDS011;19501;50.948;5.316;2023-09-19T14:11:35;8.75;;;1.80;;
33138;SDS011;19501;50.948;5.316;2023-09-19T14:14:01;10.10;;;1.92;;
33138;SDS011;19501;50.948;5.316;2023-09-19T14:16:27;8.48;;;2.13;;
33138;SDS011;19501;50.948;5.316;2023-09-19T14:18:55;7.13;;;1.83;;
33138;SDS011;19501;50.948;5.316;2023-09-19T14:21:23;7.03;;;2.38;;
33138;SDS011;19501;50.948;5.316;2023-09-19T14:23:48;14.18;;;3.20;;
33138;SDS011;19501;50.948;5.316;2023-09-19T14:26:14;8.40;;;1.90;;
33138;SDS011;19501;50.948;5.316;2023-09-19T14:28:43;7.35;;;2.30;;
33138;SDS011;19501;50.948;5.316;2023-09-19T14:31:10;6.82;;;1.67;;
33138;SDS011;19501;50.948;5.316;2023-09-19T14:33:36;7.30;;;2.30;;
33138;SDS011;19501;50.948;5.316;2023-09-19T14:36:07;9.38;;;1.83;;
33138;SDS011;19501;50.948;5.316;2023-09-19T14:38:34;10.18;;;2.17;;
33138;SDS011;19501;50.948;5.316;2023-09-19T14:41:07;8.23;;;2.05;;
33138;SDS011;19501;50.948;5.316;2023-09-19T14:43:33;10.32;;;1.95;;
33138;SDS011;19501;50.948;5.316;2023-09-19T14:46:05;11.00;;;1.80;;
33138;SDS011;19501;50.948;5.316;2023-09-19T14:48:35;10.07;;;1.67;;
33138;SDS011;19501;50.948;5.316;2023-09-19T14:51:02;9.45;;;2.63;;
33138;SDS011;19501;50.948;5.316;2023-09-19T14:53:31;8.43;;;1.92;;
33138;SDS011;19501;50.948;5.316;2023-09-19T14:56:01;8.32;;;1.80;;
33138;SDS011;19501;50.948;5.316;2023-09-19T14:58:28;8.35;;;2.10;;
33138;SDS011;19501;50.948;5.316;2023-09-19T15:01:02;9.45;;;2.38;;
33138;SDS011;19501;50.948;5.316;2023-09-19T15:03:32;10.93;;;2.30;;
33138;SDS011;19501;50.948;5.316;2023-09-19T15:05:59;10.05;;;2.10;;
33138;SDS011;19501;50.948;5.316;2023-09-19T15:08:30;7.40;;;3.08;;
33138;SDS011;19501;50.948;5.316;2023-09-19T15:10:56;13.68;;;2.30;;
33138;SDS011;19501;50.948;5.316;2023-09-19T15:13:23;8.05;;;2.05;;
33138;SDS011;19501;50.948;5.316;2023-09-19T15:15:57;5.72;;;1.70;;
33138;SDS011;19501;50.948;5.316;2023-09-19T15:18:37;7.22;;;2.05;;
33138;SDS011;19501;50.948;5.316;2023-09-19T15:21:04;6.07;;;2.00;;
33138;SDS011;19501;50.948;5.316;2023-09-19T15:23:30;9.13;;;2.25;;
33138;SDS011;19501;50.948;5.316;2023-09-19T15:25:59;10.65;;;2.38;;
33138;SDS011;19501;50.948;5.316;2023-09-19T15:28:26;7.05;;;2.15;;
33138;SDS011;19501;50.948;5.316;2023-09-19T15:31:00;11.20;;;2.22;;
33138;SDS011;19501;50.948;5.316;2023-09-19T15:33:29;15.25;;;2.63;;
33138;SDS011;19501;50.948;5.316;2023-09-19T15:36:02;10.82;;;2.15;;
33138;SDS011;19501;50.948;5.316;2023-09-19T15:38:32;6.15;;;2.13;;
33138;SDS011;19501;50.948;5.316;2023-09-19T15:41:30;9.38;;;1.95;;
33138;SDS011;19501;50.948;5.316;2023-09-19T15:43:57;7.88;;;2.30;;
33138;SDS011;19501;50.948;5.316;2023-09-19T15:46:26;6.78;;;2.05;;
33138;SDS011;19501;50.948;5.316;2023-09-19T15:48:52;12.10;;;2.50;;
33138;SDS011;19501;50.948;5.316;2023-09-19T15:51:19;8.95;;;2.00;;